Time;durP1;ratioP1;P1;durP2;ratioP2;P2;SDS_P1;SDS_P2;PMS_P1;PMS_P2;Temp;Humidity;BMP_temperature;BMP_pressure;BME280_temperature;BME280_humidity;BME280_pressure;Samples;Min_cycle;Max_cycle;Signal;HPM_P1;HPM_P2
2022/06/25 00:00:50;;;;;;;3.10;1.95;;;18.90;93.40;;;;;;2075526;28;20038;-89
2022/06/25 00:02:09;;;;;;;2.90;1.42;;;18.90;93.40;;;;;;2087082;28;20049;-90
2022/06/25 00:03:29;;;;;;;1.90;1.42;;;18.80;93.40;;;;;;2078460;28;20450;-90
2022/06/25 00:06:26;;;;;;;2.25;1.50;;;18.90;93.40;;;;;;2098990;28;20041;-90
2022/06/25 00:07:45;;;;;;;2.03;1.38;;;18.80;93.40;;;;;;2090976;28;20041;-90
2022/06/25 00:09:04;;;;;;;1.55;1.27;;;18.80;93.70;;;;;;2085162;28;20555;-90
2022/06/25 00:10:24;;;;;;;2.35;1.63;;;18.80;93.40;;;;;;2079914;28;20037;-90
2022/06/25 00:13:22;;;;;;;2.45;1.63;;;18.80;93.50;;;;;;2090196;28;20569;-90
2022/06/25 00:14:41;;;;;;;1.85;1.38;;;18.80;93.50;;;;;;2090394;28;20033;-90
2022/06/25 00:16:01;;;;;;;2.22;1.70;;;18.80;93.50;;;;;;2092979;28;20498;-90
2022/06/25 00:17:20;;;;;;;2.15;1.30;;;18.80;93.50;;;;;;2082667;28;20057;-90
2022/06/25 00:18:40;;;;;;;2.42;1.40;;;18.80;93.50;;;;;;2084570;28;20029;-90
2022/06/25 00:19:59;;;;;;;2.10;1.50;;;18.70;93.50;;;;;;2076354;28;20037;-90
2022/06/25 00:21:18;;;;;;;1.95;1.35;;;18.70;93.60;;;;;;2084196;28;20025;-90
2022/06/25 00:22:37;;;;;;;2.90;1.50;;;18.80;93.60;;;;;;2082852;28;20038;-90
2022/06/25 00:23:56;;;;;;;2.58;1.52;;;18.70;93.60;;;;;;2080614;28;20033;-90
2022/06/25 00:25:16;;;;;;;1.90;1.20;;;18.80;93.60;;;;;;2081610;28;20040;-90
2022/06/25 00:26:35;;;;;;;1.90;1.40;;;18.70;93.60;;;;;;2082563;28;20076;-90
2022/06/25 00:27:54;;;;;;;2.10;1.30;;;18.70;93.60;;;;;;2072041;28;20084;-90
2022/06/25 00:29:14;;;;;;;2.80;1.50;;;18.70;93.60;;;;;;2076509;28;20030;-90
2022/06/25 00:30:34;;;;;;;2.08;1.40;;;18.70;93.60;;;;;;2090914;28;20033;-90
2022/06/25 00:31:53;;;;;;;2.90;1.33;;;18.70;93.60;;;;;;2091232;28;20064;-89
2022/06/25 00:33:12;;;;;;;2.10;1.35;;;18.70;93.70;;;;;;2088232;28;20060;-90
2022/06/25 00:34:31;;;;;;;1.95;1.35;;;18.70;93.70;;;;;;2086385;28;20047;-90
2022/06/25 00:35:50;;;;;;;1.83;1.30;;;18.70;93.60;;;;;;2076236;28;20042;-90
2022/06/25 00:37:10;;;;;;;1.50;1.38;;;18.70;93.60;;;;;;2072011;28;20068;-90
2022/06/25 00:38:30;;;;;;;1.70;1.20;;;18.70;93.60;;;;;;2084493;28;20025;-90
2022/06/25 00:39:50;;;;;;;3.22;1.60;;;18.70;93.60;;;;;;2085834;28;20729;-90
2022/06/25 00:41:11;;;;;;;1.92;1.30;;;18.70;93.60;;;;;;2075929;28;20033;-89
2022/06/25 00:42:30;;;;;;;2.08;1.20;;;18.70;93.70;;;;;;2086953;28;20454;-91
2022/06/25 00:43:50;;;;;;;1.80;1.20;;;18.70;93.60;;;;;;2087499;28;20032;-89
2022/06/25 00:45:09;;;;;;;1.70;1.10;;;18.70;93.60;;;;;;2088630;28;20040;-90
2022/06/25 00:46:28;;;;;;;1.35;1.10;;;18.70;93.60;;;;;;2078848;28;20054;-90
2022/06/25 00:47:48;;;;;;;1.48;1.10;;;18.70;93.60;;;;;;2070238;28;20517;-89
2022/06/25 00:49:07;;;;;;;2.17;1.10;;;18.70;93.60;;;;;;2081869;28;20097;-89
2022/06/25 00:50:26;;;;;;;2.78;1.27;;;18.70;93.60;;;;;;2094136;28;20056;-90
2022/06/25 00:51:47;;;;;;;1.75;0.90;;;18.70;93.60;;;;;;2084470;28;20033;-90
2022/06/25 00:53:11;;;;;;;1.50;0.90;;;18.70;93.60;;;;;;2091129;28;20104;-90
2022/06/25 00:54:33;;;;;;;1.70;1.10;;;18.70;93.50;;;;;;2096270;28;20063;-90
2022/06/25 00:55:53;;;;;;;1.67;1.00;;;18.70;93.50;;;;;;2091553;28;20428;-90
2022/06/25 00:57:18;;;;;;;1.30;1.10;;;18.70;93.50;;;;;;2079350;28;20025;-90
2022/06/25 00:58:43;;;;;;;1.83;1.10;;;18.70;93.40;;;;;;2089699;28;20025;-89
2022/06/25 01:00:06;;;;;;;1.83;1.25;;;18.70;93.40;;;;;;2098799;28;20020;-91
2022/06/25 01:01:26;;;;;;;1.88;1.10;;;18.70;93.30;;;;;;2090683;28;20088;-90
2022/06/25 01:02:46;;;;;;;1.15;0.80;;;18.70;93.30;;;;;;2080631;28;20057;-90
2022/06/25 01:04:05;;;;;;;2.20;0.88;;;18.70;93.30;;;;;;2081031;28;20045;-90
2022/06/25 01:05:24;;;;;;;1.73;1.10;;;18.70;93.30;;;;;;2077182;28;20017;-90
2022/06/25 01:06:44;;;;;;;1.80;1.10;;;18.70;93.20;;;;;;2075876;28;20121;-90
2022/06/25 01:08:03;;;;;;;1.60;1.00;;;18.80;93.20;;;;;;2084441;28;20020;-90
2022/06/25 01:09:25;;;;;;;1.00;0.90;;;18.80;93.20;;;;;;2088026;28;20033;-90
2022/06/25 01:10:44;;;;;;;1.92;1.20;;;18.80;93.20;;;;;;2079464;28;20515;-90
2022/06/25 01:12:04;;;;;;;1.63;0.90;;;18.80;93.20;;;;;;2084299;28;20020;-89
2022/06/25 01:13:23;;;;;;;2.63;1.10;;;18.80;93.10;;;;;;2094455;28;20399;-90
2022/06/25 01:14:43;;;;;;;1.85;1.00;;;18.80;93.10;;;;;;2094835;28;20630;-90
2022/06/25 01:16:03;;;;;;;1.75;0.95;;;18.80;93.10;;;;;;2091261;28;20686;-90
2022/06/25 01:17:22;;;;;;;1.10;0.98;;;18.80;93.10;;;;;;2095187;28;20029;-90
2022/06/25 01:18:41;;;;;;;1.10;0.90;;;18.80;93.10;;;;;;2082253;28;20034;-90
2022/06/25 01:20:00;;;;;;;1.88;0.98;;;18.80;93.30;;;;;;2079542;28;20029;-90
2022/06/25 01:21:19;;;;;;;1.73;0.93;;;18.80;93.10;;;;;;2092133;28;20068;-90
2022/06/25 01:22:39;;;;;;;1.52;1.00;;;18.80;93.10;;;;;;2090078;28;20037;-90
2022/06/25 01:24:00;;;;;;;1.97;1.00;;;18.80;93.10;;;;;;2090034;28;20039;-90
2022/06/25 01:25:20;;;;;;;2.10;1.20;;;18.70;93.00;;;;;;2098619;28;20037;-89
2022/06/25 01:26:40;;;;;;;1.55;0.90;;;18.70;93.00;;;;;;2077783;28;20053;-89
2022/06/25 01:27:59;;;;;;;1.85;1.02;;;18.70;93.00;;;;;;2079782;28;20104;-90
2022/06/25 01:29:19;;;;;;;1.58;1.10;;;18.70;93.00;;;;;;2090096;28;20033;-89
2022/06/25 01:30:38;;;;;;;1.98;0.90;;;18.70;93.00;;;;;;2094026;28;20041;-90
2022/06/25 01:31:58;;;;;;;2.25;0.93;;;18.70;93.00;;;;;;2087717;28;20034;-89
2022/06/25 01:33:17;;;;;;;1.63;0.90;;;18.70;93.00;;;;;;2094676;28;20063;-90
2022/06/25 01:34:36;;;;;;;2.10;1.05;;;18.70;93.00;;;;;;2095470;28;20032;-89
2022/06/25 01:35:56;;;;;;;2.50;0.80;;;18.70;93.00;;;;;;2092350;28;20060;-90
2022/06/25 01:37:15;;;;;;;1.50;0.80;;;18.70;93.00;;;;;;2097766;28;20048;-90
2022/06/25 01:38:34;;;;;;;1.67;1.10;;;18.70;93.00;;;;;;2071603;28;20034;-89
2022/06/25 01:39:54;;;;;;;1.35;1.08;;;18.70;93.10;;;;;;2070671;28;20066;-89
2022/06/25 01:41:13;;;;;;;1.55;1.00;;;18.70;93.10;;;;;;2087547;28;20029;-89
2022/06/25 01:44:11;;;;;;;1.88;0.93;;;18.70;93.10;;;;;;2092096;28;20041;-89
2022/06/25 01:45:33;;;;;;;2.20;0.90;;;18.70;93.10;;;;;;2089083;28;20029;-89
2022/06/25 01:46:53;;;;;;;1.20;0.93;;;18.70;93.20;;;;;;2087370;28;20052;-89
2022/06/25 01:48:12;;;;;;;2.00;0.90;;;18.60;93.10;;;;;;2082006;28;20033;-89
2022/06/25 01:49:31;;;;;;;1.52;0.85;;;18.60;93.40;;;;;;2083823;28;20112;-89
2022/06/25 01:50:50;;;;;;;1.70;0.90;;;18.60;93.20;;;;;;2083546;28;20033;-90
2022/06/25 01:52:13;;;;;;;1.20;0.95;;;18.60;93.20;;;;;;2078963;28;20033;-89
2022/06/25 01:53:32;;;;;;;1.45;1.00;;;18.60;93.50;;;;;;2086288;28;20088;-90
2022/06/25 01:54:51;;;;;;;2.05;1.10;;;18.50;93.20;;;;;;2090893;28;20083;-90
2022/06/25 01:56:10;;;;;;;1.73;1.10;;;18.50;93.30;;;;;;2078687;28;20037;-89
2022/06/25 01:57:30;;;;;;;1.42;1.10;;;18.50;93.30;;;;;;2078746;28;20537;-90
2022/06/25 01:58:49;;;;;;;1.73;1.08;;;18.50;93.30;;;;;;2083775;28;20044;-89
2022/06/25 02:00:12;;;;;;;1.65;0.90;;;18.50;93.30;;;;;;2086725;28;20037;-89
2022/06/25 02:01:31;;;;;;;1.85;1.05;;;18.50;93.30;;;;;;2087761;28;20108;-89
2022/06/25 02:02:51;;;;;;;1.38;0.93;;;18.40;93.30;;;;;;2080476;28;20029;-90
2022/06/25 02:04:11;;;;;;;;;;;18.40;93.40;;;;;;2083972;28;20021;-90
2022/06/25 02:07:09;;;;;;;1.35;0.80;;;18.40;93.40;;;;;;2090808;28;20037;-89
2022/06/25 02:08:35;;;;;;;1.77;0.90;;;18.40;93.40;;;;;;2090065;28;20033;-89
2022/06/25 02:09:54;;;;;;;1.38;0.90;;;18.40;93.40;;;;;;2087841;28;20033;-90
2022/06/25 02:11:13;;;;;;;1.13;0.93;;;18.40;93.40;;;;;;2078674;28;20120;-90
2022/06/25 02:12:32;;;;;;;1.52;1.00;;;18.40;93.40;;;;;;2077352;28;20387;-90
2022/06/25 02:13:51;;;;;;;3.55;1.25;;;18.40;93.40;;;;;;2087875;28;20036;-90
2022/06/25 02:15:11;;;;;;;1.92;1.00;;;18.40;93.40;;;;;;2074786;28;20026;-90
2022/06/25 02:16:30;;;;;;;1.80;1.00;;;18.40;93.40;;;;;;2078472;28;20037;-89
2022/06/25 02:17:49;;;;;;;1.60;1.00;;;18.40;93.40;;;;;;2074851;28;20046;-90
2022/06/25 02:19:08;;;;;;;1.70;1.10;;;18.40;93.40;;;;;;2090140;28;20028;-89
2022/06/25 02:20:27;;;;;;;1.63;0.98;;;18.40;93.40;;;;;;2075206;28;20037;-89
2022/06/25 02:21:47;;;;;;;1.45;1.00;;;18.40;93.40;;;;;;2079813;28;20033;-90
2022/06/25 02:23:07;;;;;;;1.83;1.20;;;18.40;93.40;;;;;;2090496;28;20029;-90
2022/06/25 02:24:26;;;;;;;1.88;1.20;;;18.40;93.40;;;;;;2089822;28;20156;-88
2022/06/25 02:25:46;;;;;;;1.30;0.98;;;18.30;93.40;;;;;;2084788;28;20100;-89
2022/06/25 02:27:05;;;;;;;2.05;1.10;;;18.40;93.40;;;;;;2083422;28;20108;-89
2022/06/25 02:28:24;;;;;;;2.13;1.10;;;18.40;93.40;;;;;;2086402;28;20458;-89
2022/06/25 02:29:43;;;;;;;1.60;0.98;;;18.40;93.40;;;;;;2079755;28;20507;-89
2022/06/25 02:31:03;;;;;;;2.15;0.90;;;18.40;93.40;;;;;;2085115;28;20399;-90
2022/06/25 02:32:23;;;;;;;1.95;0.90;;;18.40;93.70;;;;;;2087642;28;20013;-89
2022/06/25 02:33:42;;;;;;;1.70;1.10;;;18.40;93.50;;;;;;2073522;28;20530;-89
2022/06/25 02:35:01;;;;;;;3.78;0.90;;;18.40;93.50;;;;;;2084356;28;20041;-89
2022/06/25 02:36:21;;;;;;;1.40;1.05;;;18.30;93.50;;;;;;2089687;28;20554;-89
2022/06/25 02:37:40;;;;;;;1.70;1.08;;;18.30;93.50;;;;;;2089626;28;20100;-89
2022/06/25 02:38:59;;;;;;;2.88;1.00;;;18.30;93.50;;;;;;2088905;28;20044;-89
2022/06/25 02:40:19;;;;;;;1.52;1.10;;;18.30;93.50;;;;;;2088914;28;20036;-89
2022/06/25 02:41:38;;;;;;;2.65;1.10;;;18.30;93.60;;;;;;2078666;28;20041;-89
2022/06/25 02:42:57;;;;;;;1.88;1.10;;;18.30;93.60;;;;;;2077967;28;23186;-89
2022/06/25 02:44:16;;;;;;;1.83;1.00;;;18.30;93.60;;;;;;2083221;28;20071;-89
2022/06/25 02:45:35;;;;;;;2.70;1.00;;;18.20;93.70;;;;;;2076825;28;20411;-90
2022/06/25 02:46:55;;;;;;;1.70;0.90;;;18.30;93.70;;;;;;2081024;28;20071;-89
2022/06/25 02:48:14;;;;;;;1.65;1.10;;;18.20;93.70;;;;;;2087818;28;20032;-89
2022/06/25 02:49:34;;;;;;;2.55;1.00;;;18.30;93.70;;;;;;2081034;28;20112;-89
2022/06/25 02:50:53;;;;;;;2.05;1.05;;;18.20;93.70;;;;;;2087673;28;20028;-89
2022/06/25 02:52:12;;;;;;;1.27;1.05;;;18.20;93.70;;;;;;2081965;28;20152;-90
2022/06/25 02:53:32;;;;;;;1.92;1.20;;;18.30;93.70;;;;;;2083356;28;20065;-89
2022/06/25 02:54:51;;;;;;;1.85;1.20;;;18.20;93.70;;;;;;2095119;28;20032;-89
2022/06/25 02:59:27;;;;;;;1.90;1.10;;;18.20;93.70;;;;;;2091678;28;20033;-89
2022/06/25 03:00:46;;;;;;;1.45;1.00;;;18.20;93.70;;;;;;2072328;28;20033;-89
2022/06/25 03:02:05;;;;;;;2.55;1.30;;;18.10;93.70;;;;;;2075230;28;20033;-89
2022/06/25 03:03:24;;;;;;;1.70;1.20;;;18.10;93.70;;;;;;2075150;28;20443;-89
2022/06/25 03:04:44;;;;;;;2.00;1.20;;;18.20;93.80;;;;;;2075900;28;20520;-89
2022/06/25 03:06:03;;;;;;;2.08;1.25;;;18.10;93.80;;;;;;2073906;28;20557;-89
2022/06/25 03:07:22;;;;;;;1.52;1.02;;;18.10;93.80;;;;;;2083274;28;20041;-88
2022/06/25 03:08:42;;;;;;;2.28;1.20;;;18.10;93.80;;;;;;2078842;28;20037;-89
2022/06/25 03:10:01;;;;;;;1.88;1.10;;;18.10;93.80;;;;;;2075117;28;20041;-90
2022/06/25 03:11:20;;;;;;;2.55;1.02;;;18.10;93.90;;;;;;2079125;28;20495;-89
2022/06/25 03:12:39;;;;;;;1.52;1.02;;;18.10;93.90;;;;;;2077097;28;20041;-89
2022/06/25 03:13:58;;;;;;;1.63;1.17;;;18.00;93.90;;;;;;2080398;28;20029;-89
2022/06/25 03:15:18;;;;;;;1.70;1.20;;;18.00;93.90;;;;;;2079420;28;20033;-89
2022/06/25 03:16:37;;;;;;;1.67;1.10;;;18.00;93.90;;;;;;2077657;28;20041;-89
2022/06/25 03:17:56;;;;;;;2.53;1.10;;;18.00;94.20;;;;;;2075199;28;20030;-89
2022/06/25 03:19:15;;;;;;;1.58;1.13;;;18.00;93.90;;;;;;2079407;28;20037;-90
2022/06/25 03:20:35;;;;;;;1.38;1.10;;;18.00;93.90;;;;;;2074946;28;20037;-89
2022/06/25 03:21:54;;;;;;;2.20;1.02;;;18.00;93.90;;;;;;2083388;28;20033;-89
2022/06/25 03:23:13;;;;;;;1.90;1.10;;;18.00;93.90;;;;;;2070406;28;20026;-89
2022/06/25 03:24:32;;;;;;;2.78;0.90;;;18.00;93.90;;;;;;2081197;28;20033;-89
2022/06/25 03:25:52;;;;;;;1.35;0.95;;;18.00;93.90;;;;;;2074691;28;20033;-90
2022/06/25 03:27:11;;;;;;;2.13;1.10;;;18.00;93.90;;;;;;2080786;28;20037;-88
2022/06/25 03:28:30;;;;;;;2.33;1.15;;;18.00;93.90;;;;;;2087516;28;20530;-89
2022/06/25 03:29:49;;;;;;;2.50;1.08;;;18.00;93.90;;;;;;2088602;28;20045;-89
2022/06/25 03:31:08;;;;;;;4.10;1.17;;;18.00;93.90;;;;;;2089492;28;20055;-89
2022/06/25 03:32:27;;;;;;;2.03;1.10;;;18.00;93.90;;;;;;2089739;28;20029;-89
2022/06/25 03:33:47;;;;;;;1.55;0.95;;;17.90;93.90;;;;;;2090178;28;20033;-90
2022/06/25 03:35:07;;;;;;;1.73;1.00;;;18.00;93.90;;;;;;2090072;28;20033;-89
2022/06/25 03:36:26;;;;;;;2.03;0.90;;;17.90;93.90;;;;;;2089963;28;20534;-89
2022/06/25 03:37:45;;;;;;;1.92;1.10;;;17.90;93.90;;;;;;2078238;28;20022;-89
2022/06/25 03:39:05;;;;;;;1.63;1.00;;;17.90;93.90;;;;;;2086254;28;20036;-89
2022/06/25 03:40:24;;;;;;;1.85;1.10;;;17.90;93.80;;;;;;2089943;28;20037;-89
2022/06/25 03:41:44;;;;;;;1.77;1.00;;;17.90;93.80;;;;;;2085245;28;20112;-90
2022/06/25 03:43:03;;;;;;;2.45;1.40;;;17.90;93.80;;;;;;2086062;28;20033;-89
2022/06/25 03:44:22;;;;;;;2.22;1.20;;;17.90;93.80;;;;;;2086815;28;20025;-90
2022/06/25 03:45:41;;;;;;;2.47;0.90;;;17.90;93.80;;;;;;2079450;28;20029;-90
2022/06/25 03:47:01;;;;;;;1.92;1.20;;;17.90;94.00;;;;;;2086221;28;20048;-89
2022/06/25 03:48:20;;;;;;;2.00;1.20;;;17.90;93.80;;;;;;2089997;28;20052;-89
2022/06/25 03:49:39;;;;;;;1.73;1.00;;;17.90;93.80;;;;;;2083712;28;20036;-89
2022/06/25 03:50:58;;;;;;;2.13;1.00;;;17.90;93.70;;;;;;2077141;28;20038;-90
2022/06/25 03:52:17;;;;;;;1.63;1.10;;;18.00;93.70;;;;;;2074461;28;20085;-89
2022/06/25 03:53:36;;;;;;;1.63;1.10;;;17.90;94.00;;;;;;2083093;28;20037;-89
2022/06/25 03:54:56;;;;;;;1.85;1.20;;;17.90;93.70;;;;;;2069999;28;20404;-89
2022/06/25 03:56:15;;;;;;;2.20;1.20;;;18.00;93.70;;;;;;2080242;28;20029;-89
2022/06/25 03:57:38;;;;;;;1.77;1.10;;;18.00;93.70;;;;;;2069585;28;20026;-89
2022/06/25 03:58:57;;;;;;;1.38;0.95;;;18.00;93.70;;;;;;2090265;28;20032;-88
2022/06/25 04:00:16;;;;;;;1.40;1.05;;;18.00;93.70;;;;;;2079876;28;20447;-89
2022/06/25 04:01:35;;;;;;;1.55;0.98;;;18.00;93.70;;;;;;2078427;28;20041;-89
2022/06/25 04:02:55;;;;;;;1.60;1.10;;;18.00;93.70;;;;;;2075993;28;20033;-90
2022/06/25 04:04:14;;;;;;;1.40;1.00;;;18.00;93.70;;;;;;2078782;28;20109;-89
2022/06/25 04:05:33;;;;;;;1.90;1.10;;;18.00;93.70;;;;;;2071311;28;20050;-89
2022/06/25 04:06:52;;;;;;;2.55;1.02;;;18.00;93.70;;;;;;2084094;28;20680;-89
2022/06/25 04:08:12;;;;;;;2.08;0.88;;;18.00;93.70;;;;;;2075239;28;20415;-89
2022/06/25 04:09:31;;;;;;;2.03;1.10;;;18.00;93.60;;;;;;2089027;28;20024;-89
2022/06/25 04:10:50;;;;;;;1.73;1.20;;;18.00;93.60;;;;;;2076816;28;20046;-89
2022/06/25 04:12:10;;;;;;;2.85;1.30;;;18.10;93.60;;;;;;2084623;28;20061;-89
2022/06/25 04:13:29;;;;;;;2.42;1.00;;;18.10;93.80;;;;;;2094160;28;20186;-89
2022/06/25 04:14:48;;;;;;;3.25;1.00;;;18.10;93.60;;;;;;2099028;28;20064;-89
2022/06/25 04:16:08;;;;;;;2.28;1.20;;;18.20;93.60;;;;;;2099053;28;20064;-89
2022/06/25 04:17:27;;;;;;;1.50;1.10;;;18.20;93.50;;;;;;2086746;28;20029;-89
2022/06/25 04:18:46;;;;;;;2.28;1.15;;;18.30;93.80;;;;;;2090091;28;20395;-89
2022/06/25 04:20:06;;;;;;;3.08;1.13;;;18.30;93.40;;;;;;2079445;28;20101;-89
2022/06/25 04:21:26;;;;;;;2.42;1.20;;;18.30;93.30;;;;;;2075313;28;20081;-89
2022/06/25 04:22:46;;;;;;;1.70;1.20;;;18.40;93.30;;;;;;2082087;28;20033;-90
2022/06/25 04:24:05;;;;;;;3.63;1.25;;;18.40;93.20;;;;;;2082255;28;20030;-90
2022/06/25 04:25:25;;;;;;;2.25;1.00;;;18.50;93.10;;;;;;2096356;28;20510;-89
2022/06/25 04:26:44;;;;;;;2.20;1.20;;;18.50;93.10;;;;;;2098056;28;20084;-90
2022/06/25 04:29:43;;;;;;;1.20;1.00;;;18.50;93.00;;;;;;2105637;28;20040;-89
2022/06/25 04:31:02;;;;;;;1.83;1.00;;;18.60;92.90;;;;;;2101991;28;20037;-90
2022/06/25 04:32:22;;;;;;;2.65;1.33;;;18.50;92.90;;;;;;2081252;28;21710;-89
2022/06/25 04:33:41;;;;;;;1.25;0.90;;;18.60;92.90;;;;;;2082261;28;20116;-90
2022/06/25 04:35:00;;;;;;;2.05;1.20;;;18.60;92.80;;;;;;2087090;28;20029;-89
2022/06/25 04:36:20;;;;;;;1.85;1.23;;;18.60;92.80;;;;;;2079335;28;20026;-90
2022/06/25 04:37:39;;;;;;;2.20;1.20;;;18.60;92.80;;;;;;2085242;28;20029;-90
2022/06/25 04:38:58;;;;;;;2.17;1.33;;;18.50;92.80;;;;;;2090637;28;20434;-88
2022/06/25 04:40:18;;;;;;;2.47;1.15;;;18.50;92.80;;;;;;2087735;28;20483;-89
2022/06/25 04:41:37;;;;;;;2.25;1.02;;;18.50;92.70;;;;;;2092596;28;20041;-89
2022/06/25 04:42:57;;;;;;;2.65;1.20;;;18.50;92.70;;;;;;2082689;28;20045;-89
2022/06/25 04:44:16;;;;;;;2.10;1.15;;;18.50;92.80;;;;;;2092561;28;20085;-90
2022/06/25 04:45:35;;;;;;;1.58;1.10;;;18.50;92.80;;;;;;2087446;28;20041;-89
2022/06/25 04:46:54;;;;;;;2.63;1.33;;;18.50;92.80;;;;;;2081932;28;20049;-89
2022/06/25 04:48:13;;;;;;;1.95;1.10;;;18.50;92.80;;;;;;2075899;28;20029;-89
2022/06/25 04:49:32;;;;;;;4.50;1.50;;;18.50;92.80;;;;;;2080829;28;20107;-89
2022/06/25 04:50:52;;;;;;;2.05;1.30;;;18.60;92.80;;;;;;2084161;28;20120;-89
2022/06/25 04:52:11;;;;;;;2.22;1.40;;;18.60;92.80;;;;;;2078256;28;20047;-89
2022/06/25 04:53:31;;;;;;;2.30;1.30;;;18.60;92.70;;;;;;2080130;28;20041;-89
2022/06/25 04:54:50;;;;;;;3.03;1.50;;;18.60;92.70;;;;;;2096457;28;20406;-89
2022/06/25 04:56:09;;;;;;;2.22;1.30;;;18.60;92.70;;;;;;2090850;28;20036;-89
2022/06/25 04:57:28;;;;;;;3.33;1.40;;;18.70;92.70;;;;;;2091104;28;20391;-89
2022/06/25 04:58:47;;;;;;;2.08;1.33;;;18.70;92.60;;;;;;2091242;28;20029;-89
2022/06/25 05:00:07;;;;;;;1.98;1.33;;;18.70;92.60;;;;;;2081239;28;20029;-89
2022/06/25 05:01:26;;;;;;;2.67;1.30;;;18.80;92.50;;;;;;2087505;28;20079;-89
2022/06/25 05:02:46;;;;;;;3.45;1.23;;;18.90;92.50;;;;;;2081333;28;20037;-89
2022/06/25 05:04:05;;;;;;;1.95;1.20;;;19.00;92.40;;;;;;2085647;28;20069;-89
2022/06/25 05:05:24;;;;;;;2.60;1.30;;;19.10;92.40;;;;;;2081645;28;20041;-89
2022/06/25 05:06:44;;;;;;;2.05;1.20;;;19.20;92.20;;;;;;2071502;28;20037;-89
2022/06/25 05:08:03;;;;;;;1.95;1.17;;;19.30;92.10;;;;;;2086652;28;20073;-89
2022/06/25 05:09:22;;;;;;;2.47;1.35;;;19.40;92.00;;;;;;2087304;28;20029;-89
2022/06/25 05:10:42;;;;;;;1.92;1.33;;;19.50;91.90;;;;;;2079703;28;20029;-89
2022/06/25 05:12:01;;;;;;;2.15;1.05;;;19.60;91.80;;;;;;2081766;28;20045;-89
2022/06/25 05:13:20;;;;;;;1.83;1.20;;;19.80;91.70;;;;;;2087352;28;20032;-90
2022/06/25 05:14:39;;;;;;;1.75;1.33;;;19.90;91.60;;;;;;2076697;28;20571;-89
2022/06/25 05:15:59;;;;;;;1.95;1.08;;;20.00;91.50;;;;;;2077598;28;20732;-90
2022/06/25 05:17:18;;;;;;;1.60;1.02;;;20.00;91.40;;;;;;2090881;28;20037;-89
2022/06/25 05:18:37;;;;;;;2.33;1.13;;;20.10;91.30;;;;;;2092435;28;20028;-88
2022/06/25 05:19:56;;;;;;;1.83;1.10;;;20.20;91.20;;;;;;2090360;28;20115;-89
2022/06/25 05:21:16;;;;;;;2.50;1.08;;;20.20;91.10;;;;;;2083641;28;20037;-89
2022/06/25 05:22:35;;;;;;;2.35;1.00;;;20.20;91.10;;;;;;2085568;28;20427;-89
2022/06/25 05:23:54;;;;;;;1.95;1.10;;;20.30;91.00;;;;;;2087028;28;20064;-89
2022/06/25 05:25:13;;;;;;;1.40;0.93;;;20.30;91.00;;;;;;2086860;28;20021;-88
2022/06/25 05:26:33;;;;;;;1.85;1.20;;;20.30;91.00;;;;;;2087075;28;20033;-89
2022/06/25 05:27:52;;;;;;;2.10;1.40;;;20.40;91.00;;;;;;2091315;28;20060;-89
2022/06/25 05:29:11;;;;;;;2.47;1.58;;;20.40;90.90;;;;;;2082175;28;20026;-89
2022/06/25 05:30:31;;;;;;;1.50;1.20;;;20.50;90.80;;;;;;2081692;28;20032;-88
2022/06/25 05:31:51;;;;;;;1.92;1.25;;;20.60;90.70;;;;;;2089805;28;20029;-92
2022/06/25 05:33:10;;;;;;;2.53;1.23;;;20.60;90.90;;;;;;2082681;28;20045;-93
2022/06/25 05:34:29;;;;;;;1.40;1.20;;;20.70;90.60;;;;;;2083510;28;20511;-91
2022/06/25 05:35:49;;;;;;;2.28;1.25;;;20.80;90.50;;;;;;2089489;28;20041;-92
2022/06/25 05:37:08;;;;;;;2.78;1.13;;;20.80;90.40;;;;;;2091334;28;20067;-90
2022/06/25 05:38:28;;;;;;;3.20;1.40;;;20.90;90.40;;;;;;2088654;28;20037;-90
2022/06/25 05:39:47;;;;;;;1.77;1.13;;;21.00;90.20;;;;;;2091425;28;20037;-91
2022/06/25 05:41:08;;;;;;;1.65;1.08;;;21.00;90.10;;;;;;2084601;28;20044;-90
2022/06/25 05:42:27;;;;;;;1.45;1.00;;;21.00;90.10;;;;;;2091263;28;20025;-90
2022/06/25 05:43:46;;;;;;;2.88;1.35;;;21.00;90.10;;;;;;2092480;28;20041;-90
2022/06/25 05:45:06;;;;;;;2.75;1.33;;;21.00;90.10;;;;;;2079155;28;20500;-89
2022/06/25 05:46:26;;;;;;;2.35;1.13;;;21.00;90.10;;;;;;2092353;28;20076;-90
2022/06/25 05:47:45;;;;;;;2.28;1.20;;;20.90;90.00;;;;;;2085788;28;20041;-89
2022/06/25 05:49:05;;;;;;;2.63;1.25;;;20.80;90.10;;;;;;2087528;28;20113;-89
2022/06/25 05:50:25;;;;;;;2.08;1.15;;;20.80;90.10;;;;;;2082684;28;20029;-91
2022/06/25 05:51:44;;;;;;;2.22;1.27;;;20.70;90.20;;;;;;2083342;28;20037;-90
2022/06/25 05:53:03;;;;;;;3.22;1.38;;;20.70;90.20;;;;;;2075550;28;20033;-90
2022/06/25 05:54:22;;;;;;;1.27;1.00;;;20.60;90.30;;;;;;2077477;28;20477;-89
2022/06/25 05:55:41;;;;;;;2.15;1.20;;;20.60;90.30;;;;;;2075713;28;20026;-90
2022/06/25 05:57:00;;;;;;;2.20;1.30;;;20.60;90.30;;;;;;2083574;28;20113;-89
2022/06/25 05:58:22;;;;;;;2.28;1.10;;;20.60;90.20;;;;;;2092524;28;20096;-90
2022/06/25 05:59:41;;;;;;;2.10;1.13;;;20.60;90.20;;;;;;2090060;28;20072;-90
2022/06/25 06:01:01;;;;;;;1.67;1.10;;;20.60;90.20;;;;;;2079552;28;20029;-90
2022/06/25 06:02:20;;;;;;;3.10;1.23;;;20.60;90.20;;;;;;2082678;28;20040;-90
2022/06/25 06:03:39;;;;;;;2.03;1.30;;;20.60;90.20;;;;;;2091850;28;20032;-89
2022/06/25 06:04:58;;;;;;;2.22;1.73;;;20.70;90.10;;;;;;2083601;28;20112;-89
2022/06/25 06:06:17;;;;;;;1.40;1.00;;;20.70;90.10;;;;;;2075730;28;20508;-90
2022/06/25 06:07:37;;;;;;;2.90;1.33;;;20.70;90.00;;;;;;2082585;28;20469;-90
2022/06/25 06:08:57;;;;;;;3.03;1.40;;;20.80;89.80;;;;;;2085570;28;20036;-90
2022/06/25 06:10:16;;;;;;;2.80;1.20;;;20.90;89.60;;;;;;2088474;28;20041;-91
2022/06/25 06:11:35;;;;;;;2.28;1.10;;;21.00;90.00;;;;;;2094247;28;20032;-90
2022/06/25 06:12:54;;;;;;;1.80;1.20;;;21.00;89.40;;;;;;2095056;28;20032;-91
2022/06/25 06:14:14;;;;;;;1.95;1.15;;;21.00;89.30;;;;;;2085864;28;20033;-91
2022/06/25 06:15:33;;;;;;;1.70;1.10;;;21.10;89.30;;;;;;2088074;28;20049;-90
2022/06/25 06:16:52;;;;;;;2.92;1.27;;;21.10;89.20;;;;;;2091910;28;20056;-90
2022/06/25 06:18:12;;;;;;;1.98;1.25;;;21.20;89.10;;;;;;2090259;28;20033;-92
2022/06/25 06:19:31;;;;;;;1.60;1.10;;;21.20;88.90;;;;;;2091791;28;20491;-91
2022/06/25 06:20:50;;;;;;;1.38;1.00;;;21.30;88.70;;;;;;2088824;28;20434;-90
2022/06/25 06:22:10;;;;;;;3.38;1.48;;;21.40;88.50;;;;;;2086005;28;20037;-91
2022/06/25 06:23:29;;;;;;;2.15;1.00;;;21.40;88.40;;;;;;2090138;28;20477;-90
2022/06/25 06:24:48;;;;;;;1.52;1.10;;;21.50;88.20;;;;;;2081845;28;20045;-91
2022/06/25 06:26:07;;;;;;;2.35;1.20;;;21.50;88.20;;;;;;2083676;28;20029;-91
2022/06/25 06:27:27;;;;;;;2.00;1.00;;;21.50;88.10;;;;;;2087032;28;20076;-92
2022/06/25 06:28:46;;;;;;;1.70;1.10;;;21.60;88.00;;;;;;2078811;28;20143;-91
2022/06/25 06:30:08;;;;;;;1.60;0.90;;;21.60;87.80;;;;;;2075969;28;20029;-91
2022/06/25 06:31:27;;;;;;;1.90;1.08;;;21.60;87.80;;;;;;2083373;28;20044;-92
2022/06/25 06:32:46;;;;;;;2.42;1.05;;;21.60;87.90;;;;;;2086529;28;20566;-91
2022/06/25 06:34:06;;;;;;;2.00;1.13;;;21.60;87.80;;;;;;2082304;28;20037;-92
2022/06/25 06:35:25;;;;;;;2.50;1.10;;;21.70;87.70;;;;;;2089928;28;20021;-91
2022/06/25 06:36:45;;;;;;;2.60;0.98;;;21.70;87.60;;;;;;2085614;28;20041;-93
2022/06/25 06:38:04;;;;;;;1.73;1.10;;;21.80;87.30;;;;;;2084232;28;20021;-92
2022/06/25 06:39:24;;;;;;;1.85;1.02;;;21.80;87.00;;;;;;2090570;28;20312;-92
2022/06/25 06:40:43;;;;;;;1.73;0.95;;;21.90;86.80;;;;;;2089786;28;20074;-90
2022/06/25 06:42:02;;;;;;;2.13;1.10;;;21.90;86.60;;;;;;2086447;28;20036;-92
2022/06/25 06:43:21;;;;;;;1.60;1.20;;;21.90;86.50;;;;;;2094355;28;20518;-92
2022/06/25 06:44:41;;;;;;;2.47;1.00;;;21.90;86.40;;;;;;2091085;28;20029;-91
2022/06/25 06:45:59;;;;;;;2.63;1.10;;;21.90;86.60;;;;;;2090787;28;20041;-92
2022/06/25 06:47:19;;;;;;;1.63;1.00;;;21.90;86.40;;;;;;2092193;28;20573;-92
2022/06/25 06:48:41;;;;;;;1.67;0.90;;;22.00;86.40;;;;;;2077882;28;20056;-92
2022/06/25 06:50:00;;;;;;;1.55;0.90;;;22.00;86.30;;;;;;2085390;28;20479;-93
2022/06/25 06:51:20;;;;;;;3.15;1.00;;;22.10;86.20;;;;;;2081983;28;20033;-93
2022/06/25 06:52:39;;;;;;;1.83;0.90;;;22.10;85.90;;;;;;2084086;28;20033;-90
2022/06/25 06:53:58;;;;;;;2.03;1.10;;;22.20;86.00;;;;;;2086026;28;20064;-93
2022/06/25 06:55:17;;;;;;;1.73;0.98;;;22.20;85.80;;;;;;2089871;28;20029;-91
2022/06/25 06:56:37;;;;;;;3.20;1.10;;;22.20;85.50;;;;;;2081700;28;20041;-92
2022/06/25 06:57:56;;;;;;;2.95;1.10;;;22.20;85.40;;;;;;2089306;28;20044;-91
2022/06/25 06:59:15;;;;;;;1.60;1.00;;;22.20;85.40;;;;;;2086394;28;20496;-92
2022/06/25 07:00:34;;;;;;;1.45;0.82;;;22.10;85.40;;;;;;2089880;28;20072;-92
2022/06/25 07:01:53;;;;;;;2.85;1.10;;;22.10;85.40;;;;;;2089874;28;20415;-92
2022/06/25 07:03:13;;;;;;;1.90;1.00;;;22.10;85.40;;;;;;2089906;28;20032;-93
2022/06/25 07:04:32;;;;;;;2.03;0.90;;;22.10;85.40;;;;;;2081619;28;20033;-93
2022/06/25 07:05:51;;;;;;;1.10;0.80;;;22.10;85.60;;;;;;2082598;28;20033;-92